tititudorancea.com
Station Historical Data
Daily Summary for June 28, 2018 Units:  Metric    English   Both
« Previous Day
Next Day »
Daily Weekly Monthly Yearly Custom
  High: Low: Average:
Temperature: -17.8 °C -0.4 °C 6.1 °C
Dew Point: -17.8 °C -1.2 °C 3 °C
Humidity: Humidity % 48 % 82 %
Wind Speed: 0 km/h 0 km/h 3.5 km/h
Wind Gust: 0 km/h - -
Wind:- - SE
Pressure: 0 hPa 1019.5 hPa -
Precipitation: 0 mm    
Historical Graphs
 
 
Ararat weather Find more about Weather in Ararat, AU


 



 


Tabular Data for June 28, 2018
Time Temperature Dew Point Pressure Wind Wind Speed Wind Gust Humidity Rainfall Rate (Hourly)
-17.8 °C -17.8 °C 0 hPa Calm     Humidity % 0 mm
00:04 5.5 °C 4.6 °C 1026.6 hPa Calm     94 % 0 mm
00:09 5.6 °C 4.7 °C 1026.3 hPa Calm     94 % 0 mm
00:14 5.6 °C 4.7 °C 1026.3 hPa Calm     94 % 0 mm
00:19 5.5 °C 4.6 °C 1026.3 hPa Calm     94 % 0 mm
00:24 5.4 °C 4.4 °C 1026.3 hPa Calm     93 % 0 mm
00:29 5.4 °C 4.6 °C 1026.3 hPa Calm     94 % 0 mm
00:34 5.3 °C 4.3 °C 1026.3 hPa Calm     93 % 0 mm
00:39 5.2 °C 4.2 °C 1026.3 hPa Calm     93 % 0 mm
00:44 5.1 °C 4.1 °C 1026.3 hPa Calm     93 % 0 mm
00:49 5 °C 3.9 °C 1026.3 hPa Calm     93 % 0 mm
00:54 4.9 °C 3.8 °C 1026.3 hPa Calm     93 % 0 mm
00:59 4.8 °C 3.7 °C 1026.3 hPa Calm     93 % 0 mm
01:04 4.7 °C 3.6 °C 1026.3 hPa Calm     93 % 0 mm
01:09 4.5 °C 3.4 °C 1026.3 hPa Calm     93 % 0 mm
01:14 4.3 °C 3.3 °C 1026 hPa Calm     93 % 0 mm
01:19 4.2 °C 3.3 °C 1026 hPa Calm     94 % 0 mm
01:24 4.2 °C 3.3 °C 1026 hPa Calm     94 % 0 mm
01:29 4.1 °C 3.2 °C 1026 hPa Calm     94 % 0 mm
01:34 3.9 °C 2.9 °C 1026 hPa Calm     93 % 0 mm
01:39 3.7 °C 2.7 °C 1026 hPa Calm     93 % 0 mm
01:44 3.7 °C 2.8 °C 1026 hPa Calm     94 % 0 mm
01:49 3.7 °C 2.8 °C 1026 hPa Calm     94 % 0 mm
01:54 3.6 °C 2.7 °C 1026 hPa Calm     94 % 0 mm
01:59 3.5 °C 2.6 °C 1026 hPa Calm     94 % 0 mm
02:04 3.4 °C 2.5 °C 1026 hPa Calm     94 % 0 mm
02:09 3.3 °C 2.4 °C 1026 hPa Calm     94 % 0 mm
02:14 3.2 °C 2.3 °C 1026 hPa Calm     94 % 0 mm
02:19 3 °C 2.1 °C 1026 hPa Calm     94 % 0 mm
02:24 2.9 °C 2 °C 1025.6 hPa Calm     94 % 0 mm
02:29 2.8 °C 1.9 °C 1025.6 hPa Calm     94 % 0 mm
02:34 2.7 °C 1.8 °C 1025.6 hPa Calm     94 % 0 mm
02:39 2.5 °C 1.6 °C 1025.6 hPa Calm     94 % 0 mm
02:44 2.4 °C 1.5 °C 1025.6 hPa Calm     94 % 0 mm
02:49 2.3 °C 1.4 °C 1025.6 hPa Calm     94 % 0 mm
02:54 2.2 °C 1.3 °C 1025.6 hPa Calm     94 % 0 mm
02:59 2.2 °C 1.3 °C 1025.6 hPa Calm     94 % 0 mm
03:04 2.1 °C 1.2 °C 1025.3 hPa Calm     94 % 0 mm
03:09 2 °C 1.1 °C 1025.6 hPa Calm     94 % 0 mm
03:14 1.9 °C 1 °C 1025.3 hPa Calm     94 % 0 mm
03:19 1.8 °C 0.9 °C 1025.3 hPa Calm     94 % 0 mm
03:24 1.7 °C 0.8 °C 1025.3 hPa Calm     94 % 0 mm
03:29 1.6 °C 0.7 °C 1025.3 hPa Calm     94 % 0 mm
03:34 1.5 °C 0.7 °C 1025.3 hPa Calm     94 % 0 mm
03:39 1.6 °C 0.7 °C 1025.3 hPa Calm     94 % 0 mm
03:44 1.6 °C 0.7 °C 1024.9 hPa Calm     94 % 0 mm
03:49 1.6 °C 0.9 °C 1024.9 hPa Calm     95 % 0 mm
03:54 1.7 °C 1 °C 1024.9 hPa Calm     95 % 0 mm
03:59 1.7 °C 0.8 °C 1024.9 hPa Calm     94 % 0 mm
04:04 1.7 °C 0.8 °C 1024.9 hPa Calm     94 % 0 mm
04:09 1.7 °C 1 °C 1024.9 hPa Calm     95 % 0 mm
04:14 1.7 °C 1 °C 1024.9 hPa Calm     95 % 0 mm
04:19 1.7 °C 1 °C 1024.9 hPa Calm     95 % 0 mm
04:24 1.7 °C 0.8 °C 1024.6 hPa Calm     94 % 0 mm
04:29 1.6 °C 0.7 °C 1024.6 hPa Calm     94 % 0 mm
04:34 1.5 °C 0.7 °C 1024.6 hPa Calm     94 % 0 mm
04:39 1.4 °C 0.6 °C 1024.6 hPa Calm     94 % 0 mm
04:44 1.3 °C 0.4 °C 1024.6 hPa Calm     94 % 0 mm
04:49 1.2 °C 0.3 °C 1024.6 hPa Calm     94 % 0 mm
04:54 1.2 °C 0.4 °C 1024.6 hPa East 3.7 km/h   95 % 0 mm
04:59 1.2 °C 0.4 °C 1024.3 hPa Calm     95 % 0 mm
05:04 1.1 °C 0.2 °C 1024.6 hPa East 1.9 km/h   94 % 0 mm
05:09 1 °C 0.2 °C 1024.3 hPa Calm     94 % 0 mm
05:14 0.9 °C 0.1 °C 1024.3 hPa Calm     94 % 0 mm
05:19 0.8 °C -0.1 °C 1024.3 hPa Calm     94 % 0 mm
05:24 0.7 °C -0.1 °C 1024.3 hPa Calm     94 % 0 mm
05:29 0.6 °C -0.2 °C 1024.3 hPa Calm     94 % 0 mm
05:34 0.5 °C -0.3 °C 1024.3 hPa Calm     94 % 0 mm
05:39 0.4 °C -0.4 °C 1024.3 hPa Calm     94 % 0 mm
05:44 0.3 °C -0.5 °C 1024.3 hPa Calm     94 % 0 mm
05:49 0.3 °C -0.6 °C 1024.3 hPa Calm     94 % 0 mm
05:54 0.2 °C -0.7 °C 1024.3 hPa Calm     94 % 0 mm
05:59 0.1 °C -0.7 °C 1024.3 hPa Calm     94 % 0 mm
06:04 0.2 °C -0.6 °C 1024.3 hPa Calm     95 % 0 mm
06:09 0.2 °C -0.5 °C 1024.3 hPa Calm     95 % 0 mm
06:14 0.2 °C -0.5 °C 1024.3 hPa Calm     95 % 0 mm
06:19 0.3 °C -0.4 °C 1024.3 hPa Calm     95 % 0 mm
06:24 0.4 °C -0.3 °C 1024.3 hPa Calm     95 % 0 mm
06:29 0.4 °C -0.3 °C 1024.3 hPa Calm     95 % 0 mm
06:34 0.4 °C -0.3 °C 1024.3 hPa Calm     95 % 0 mm
06:39 0.3 °C -0.4 °C 1024.3 hPa Calm     95 % 0 mm
06:44 0.3 °C -0.4 °C 1024.3 hPa Calm     95 % 0 mm
06:49 0.3 °C -0.4 °C 1024.3 hPa Calm     95 % 0 mm
06:54 0.4 °C -0.3 °C 1024.3 hPa Calm     95 % 0 mm
06:59 0.4 °C -0.3 °C 1024.3 hPa Calm     95 % 0 mm
07:04 0.3 °C -0.4 °C 1024.3 hPa Calm     95 % 0 mm
07:09 0.3 °C -0.4 °C 1024.3 hPa Calm     95 % 0 mm
07:14 0.2 °C -0.6 °C 1024.3 hPa Calm     95 % 0 mm
07:19 0 °C -0.8 °C 1024.3 hPa Calm     94 % 0 mm
07:24 -0.1 °C -0.8 °C 1024.3 hPa Calm     95 % 0 mm
07:29 -0.2 °C -0.9 °C 1024.3 hPa North 5.6 km/h 2.1 km/h 95 % 0 mm
07:34 -0.1 °C -0.8 °C 1024.6 hPa Calm     95 % 0 mm
07:39 -0.1 °C -0.8 °C 1024.6 hPa Calm     95 % 0 mm
07:44 -0.2 °C -0.9 °C 1024.6 hPa Calm     95 % 0 mm
07:49 -0.3 °C -1.1 °C 1024.6 hPa Calm     95 % 0 mm
07:54 -0.4 °C -1.1 °C 1024.6 hPa Calm     95 % 0 mm
07:59 -0.4 °C -1.2 °C 1024.6 hPa Calm     95 % 0 mm
08:04 -0.4 °C -1.2 °C 1024.6 hPa Calm     95 % 0 mm
08:09 -0.4 °C -1.1 °C 1024.6 hPa Calm     95 % 0 mm
08:14 -0.3 °C -1.1 °C 1024.9 hPa Calm     95 % 0 mm
08:19 -0.2 °C -0.9 °C 1024.6 hPa Calm     95 % 0 mm
08:24 0 °C -0.6 °C 1024.6 hPa Calm     96 % 0 mm
08:29 0.2 °C -0.3 °C 1024.6 hPa Calm     96 % 0 mm
08:34 0.6 °C 0.1 °C 1024.6 hPa Calm     96 % 0 mm
08:39 0.9 °C 0.4 °C 1024.6 hPa East 3.7 km/h 2.6 km/h 96 % 0 mm
08:44 1.2 °C 0.7 °C 1024.6 hPa East 3.7 km/h 3.7 km/h 96 % 0 mm
08:49 1.7 °C 1.1 °C 1024.6 hPa Calm     96 % 0 mm
08:54 2.4 °C 1.9 °C 1024.3 hPa Calm     97 % 0 mm
08:59 3.1 °C 2.6 °C 1024.3 hPa Calm     97 % 0 mm
09:04 3.3 °C 2.8 °C 1024.3 hPa Calm     97 % 0 mm
09:09 3.7 °C 3.2 °C 1024.3 hPa Calm     97 % 0 mm
09:14 4 °C 3.6 °C 1024.3 hPa Calm     97 % 0 mm
09:19 4.1 °C 3.7 °C 1024.3 hPa Calm     97 % 0 mm
09:24 4.4 °C 4 °C 1024.3 hPa Calm     97 % 0 mm
09:29 5 °C 4.6 °C 1024.3 hPa Calm     97 % 0 mm
09:34 5.6 °C 5.2 °C 1024.3 hPa Calm     97 % 0 mm
09:39 6 °C 5.6 °C 1024.3 hPa SE 1.9 km/h 1 km/h 97 % 0 mm
09:44 5.9 °C 5.3 °C 1024.3 hPa SE 1.9 km/h   96 % 0 mm
09:49 6.2 °C 5.4 °C 1024.3 hPa Calm     95 % 0 mm
09:54 6.6 °C 5.9 °C 1024.3 hPa SE 1.9 km/h 1.8 km/h 95 % 0 mm
09:59 6.7 °C 5.7 °C 1024.3 hPa SE 1.9 km/h   93 % 0 mm
10:04 6.8 °C 5.6 °C 1024.3 hPa Calm     92 % 0 mm
10:09 6.6 °C 5.2 °C 1024.3 hPa SE 1.9 km/h 1.8 km/h 91 % 0 mm
10:14 6.9 °C 5.5 °C 1024.3 hPa Calm     91 % 0 mm
10:19 7.5 °C 5.9 °C 1024.3 hPa Calm     90 % 0 mm
10:24 7.8 °C 5.7 °C 1023.9 hPa Calm     87 % 0 mm
10:29 8.2 °C 5.8 °C 1023.9 hPa Calm     85 % 0 mm
10:34 8.8 °C 5.6 °C 1023.9 hPa Calm     80 % 0 mm
10:39 9.5 °C 5.8 °C 1023.9 hPa SE 1.6 km/h 0.2 km/h 78 % 0 mm
10:44 9.8 °C 5.4 °C 1023.9 hPa SE 3.7 km/h 1.9 km/h 74 % 0 mm
10:49 10.1 °C 5.6 °C 1023.9 hPa SE 3.7 km/h 1 km/h 74 % 0 mm
10:54 10.7 °C 5.6 °C 1023.6 hPa SE 1.9 km/h   71 % 0 mm
10:59 10.9 °C 5.3 °C 1023.6 hPa SE 3.7 km/h 1.4 km/h 68 % 0 mm
11:04 11.2 °C 5.7 °C 1023.6 hPa SE 3.7 km/h 2.6 km/h 69 % 0 mm
11:09 11.2 °C 5.6 °C 1023.6 hPa SE 5.6 km/h 4.7 km/h 68 % 0 mm
11:14 11.1 °C 5.4 °C 1023.6 hPa SE 5.6 km/h 4.7 km/h 68 % 0 mm
11:19 11.2 °C 5.5 °C 1023.6 hPa SE 7.4 km/h 4 km/h 68 % 0 mm
11:24 11.5 °C 5.6 °C 1023.2 hPa SE 5.6 km/h 1.3 km/h 67 % 0 mm
11:29 11.7 °C 4.9 °C 1023.2 hPa SE 8 km/h 6.8 km/h 63 % 0 mm
11:34 12.1 °C 4.5 °C 1023.2 hPa SE 7.4 km/h 6 km/h 60 % 0 mm
11:39 12.4 °C 4.6 °C 1023.2 hPa SE 5.6 km/h 3.7 km/h 59 % 0 mm
11:44 12.7 °C 4.1 °C 1022.9 hPa SE 7.4 km/h 4.8 km/h 56 % 0 mm
11:49 12.6 °C 3.7 °C 1022.9 hPa SE 8 km/h 3.5 km/h 55 % 0 mm
11:54 12.3 °C 4.5 °C 1022.9 hPa SE 6.4 km/h 4.3 km/h 59 % 0 mm
11:59 12.4 °C 3.9 °C 1022.6 hPa SE 8 km/h 8.4 km/h 56 % 0 mm
12:04 12.4 °C 4.4 °C 1022.6 hPa SE 11.1 km/h 7.7 km/h 58 % 0 mm
12:09 12.4 °C 4.4 °C 1022.6 hPa SE 11.1 km/h 7.9 km/h 58 % 0 mm
12:14 12.1 °C 4.3 °C 1022.6 hPa SE 13 km/h 8 km/h 59 % 0 mm
12:19 11.9 °C 3.9 °C 1022.2 hPa SE 9.7 km/h 7.2 km/h 58 % 0 mm
12:24 11.9 °C 3.6 °C 1022.2 hPa SE 12.9 km/h 10.5 km/h 57 % 0 mm
12:29 11.8 °C 4.3 °C 1022.2 hPa SE 7.4 km/h 4.2 km/h 60 % 0 mm
12:34 11.9 °C 4.6 °C 1021.9 hPa SE 9.7 km/h 5.5 km/h 61 % 0 mm
12:39 11.9 °C 3.9 °C 1021.9 hPa SE 11.3 km/h 6.9 km/h 58 % 0 mm
12:44 12.1 °C 4.5 °C 1021.9 hPa SE 9.3 km/h 7.7 km/h 60 % 0 mm
12:49 12.3 °C 4 °C 1021.9 hPa SE 8 km/h 7.7 km/h 57 % 0 mm
12:54 12.4 °C 4.1 °C 1021.9 hPa SE 11.3 km/h 7.2 km/h 57 % 0 mm
12:59 12.3 °C 4.3 °C 1021.9 hPa SE 13 km/h 9.5 km/h 58 % 0 mm
13:04 12.3 °C 4.5 °C 1021.9 hPa SE 13 km/h 9.7 km/h 59 % 0 mm
13:09 12.3 °C 4.5 °C 1021.9 hPa SE 11.3 km/h 7.4 km/h 59 % 0 mm
13:14 12.3 °C 3.8 °C 1021.6 hPa SE 14.8 km/h 10.8 km/h 56 % 0 mm
13:19 12.4 °C 4.1 °C 1021.6 hPa SE 11.1 km/h 8.7 km/h 57 % 0 mm
13:24 12.4 °C 3.6 °C 1021.6 hPa SE 9.3 km/h 5.1 km/h 55 % 0 mm
13:29 12.5 °C 3.4 °C 1021.6 hPa SE 13 km/h 7.1 km/h 54 % 0 mm
13:34 12.5 °C 3.7 °C 1021.6 hPa SE 9.3 km/h 5.3 km/h 55 % 0 mm
13:39 12.6 °C 4.3 °C 1021.2 hPa SE 11.3 km/h 10 km/h 57 % 0 mm
13:44 12.4 °C 4.4 °C 1021.6 hPa SE 9.3 km/h 6.6 km/h 58 % 0 mm
13:49 12.5 °C 4.4 °C 1021.6 hPa SE 14.5 km/h 7.9 km/h 58 % 0 mm
13:54 12.6 °C 3.7 °C 1021.2 hPa SE 11.1 km/h 9 km/h 55 % 0 mm
13:59 12.5 °C 3.9 °C 1021.2 hPa SSE 9.7 km/h 10.5 km/h 56 % 0 mm
14:04 12.5 °C 4.2 °C 1021.2 hPa SE 9.3 km/h 5.5 km/h 57 % 0 mm
14:09 12.7 °C 4.8 °C 1021.2 hPa SE 9.7 km/h 5.6 km/h 59 % 0 mm
14:14 12.7 °C 4.6 °C 1021.2 hPa SSE 13 km/h 6.8 km/h 58 % 0 mm
14:19 12.9 °C 4.8 °C 1021.2 hPa SSE 9.3 km/h 7.2 km/h 58 % 0 mm
14:24 12.9 °C 4.3 °C 1021.2 hPa SE 7.4 km/h 7.7 km/h 56 % 0 mm
14:29 12.9 °C 4.8 °C 1021.2 hPa SE 7.4 km/h 2.6 km/h 58 % 0 mm
14:34 12.9 °C 4.6 °C 1021.2 hPa SSE 9.3 km/h 7.6 km/h 57 % 0 mm
14:39 12.9 °C 4.3 °C 1021.2 hPa SE 9.3 km/h 6.9 km/h 56 % 0 mm
14:44 12.9 °C 4.3 °C 1020.9 hPa SSE 9.3 km/h 4 km/h 56 % 0 mm
14:49 13.1 °C 3.4 °C 1020.9 hPa SE 9.3 km/h 5.8 km/h 52 % 0 mm
14:54 13.2 °C 2.4 °C 1020.9 hPa SSE 9.3 km/h 5.1 km/h 48 % 0 mm
14:59 13.2 °C 2.7 °C 1020.9 hPa SE 11.1 km/h 1.4 km/h 49 % 0 mm
15:04 13.2 °C 3 °C 1020.9 hPa SSE 9.7 km/h 6.6 km/h 50 % 0 mm
15:09 13.1 °C 2.9 °C 1020.5 hPa SE 9.3 km/h 2.9 km/h 50 % 0 mm
15:14 13.1 °C 2.9 °C 1020.9 hPa SE 8 km/h 6.4 km/h 50 % 0 mm
15:19 13.3 °C 3.1 °C 1020.9 hPa SE 7.4 km/h 4.5 km/h 50 % 0 mm
15:24 13.2 °C 2.9 °C 1020.5 hPa SE 7.4 km/h 4.2 km/h 50 % 0 mm
15:29 13.1 °C 3.4 °C 1020.5 hPa SSE 3.7 km/h 4.7 km/h 52 % 0 mm
15:34 13.1 °C 3.9 °C 1020.9 hPa SSE 6.4 km/h 3.9 km/h 54 % 0 mm
15:39 13.1 °C 3.7 °C 1020.5 hPa SE 5.6 km/h 3.4 km/h 53 % 0 mm
15:44 13.2 °C 4.1 °C 1020.5 hPa SSE 3.7 km/h 1.1 km/h 54 % 0 mm
15:49 13.2 °C 4.1 °C 1020.5 hPa SSE 7.4 km/h 1.6 km/h 54 % 0 mm
15:54 13.1 °C 4.2 °C 1020.5 hPa SE 7.4 km/h 5.8 km/h 55 % 0 mm
15:59 12.9 °C 4.1 °C 1020.5 hPa SSE 9.3 km/h 3.4 km/h 55 % 0 mm
16:04 12.9 °C 4.3 °C 1020.5 hPa SSE 5.6 km/h 0.6 km/h 56 % 0 mm
16:09 12.9 °C 4.3 °C 1020.5 hPa SSE 7.4 km/h 1.8 km/h 56 % 0 mm
16:14 12.9 °C 4.6 °C 1020.5 hPa SE 1.9 km/h 1.8 km/h 57 % 0 mm
16:19 12.8 °C 4.3 °C 1020.2 hPa SE 6.4 km/h 3.1 km/h 56 % 0 mm
16:24 12.7 °C 4.4 °C 1020.5 hPa SE 3.7 km/h 0.3 km/h 57 % 0 mm
16:29 12.6 °C 4.5 °C 1020.2 hPa SE 3.7 km/h 2.3 km/h 58 % 0 mm
16:34 12.4 °C 4.7 °C 1020.2 hPa Calm     59 % 0 mm
16:39 12.4 °C 4.8 °C 1020.5 hPa Calm     60 % 0 mm
16:44 12.3 °C 4.9 °C 1020.2 hPa SE 3.2 km/h 1.1 km/h 61 % 0 mm
16:49 12.1 °C 4.8 °C 1020.2 hPa SSE 1.9 km/h 0.6 km/h 61 % 0 mm
16:54 11.9 °C 4.9 °C 1020.2 hPa SE 1.9 km/h   62 % 0 mm
16:59 11.8 °C 4.9 °C 1020.5 hPa Calm     63 % 0 mm
17:04 11.5 °C 4.9 °C 1020.2 hPa Calm     64 % 0 mm
17:09 11.2 °C 4.9 °C 1020.5 hPa Calm     65 % 0 mm
17:14 10.7 °C 4.8 °C 1020.2 hPa Calm     67 % 0 mm
17:19 10.3 °C 4.8 °C 1020.2 hPa Calm     69 % 0 mm
17:24 10 °C 5 °C 1020.2 hPa Calm     71 % 0 mm
17:29 9.7 °C 4.7 °C 1020.2 hPa Calm     71 % 0 mm
17:34 9.4 °C 4.6 °C 1020.2 hPa Calm     72 % 0 mm
17:39 9.1 °C 4.5 °C 1020.2 hPa Calm     73 % 0 mm
17:44 8.9 °C 4.6 °C 1020.2 hPa Calm     74 % 0 mm
17:49 8.5 °C 4.3 °C 1020.2 hPa SE 1.6 km/h   75 % 0 mm
17:54 8.2 °C 4.4 °C 1020.2 hPa SE 3.7 km/h 2.4 km/h 77 % 0 mm
17:59 7.9 °C 4.3 °C 1020.2 hPa SE 1.9 km/h 0.3 km/h 78 % 0 mm
18:04 7.7 °C 4.3 °C 1020.2 hPa Calm     79 % 0 mm
18:09 7.6 °C 4.2 °C 1020.2 hPa Calm     79 % 0 mm
18:14 7.4 °C 4.2 °C 1020.2 hPa Calm     80 % 0 mm
18:19 7.3 °C 4.1 °C 1020.2 hPa Calm     80 % 0 mm
18:24 7.1 °C 3.8 °C 1020.2 hPa Calm     80 % 0 mm
18:29 6.8 °C 3.7 °C 1020.2 hPa Calm     81 % 0 mm
18:34 6.7 °C 3.8 °C 1020.2 hPa Calm     82 % 0 mm
18:39 6.6 °C 3.9 °C 1020.2 hPa Calm     83 % 0 mm
18:44 6.4 °C 3.6 °C 1020.2 hPa Calm     82 % 0 mm
18:49 6.3 °C 3.7 °C 1020.2 hPa Calm     83 % 0 mm
18:54 6.2 °C 3.6 °C 1020.2 hPa Calm     83 % 0 mm
18:59 6.1 °C 3.4 °C 1020.2 hPa Calm     83 % 0 mm
19:04 6 °C 3.5 °C 1020.2 hPa Calm     84 % 0 mm
19:09 5.8 °C 3.1 °C 1020.2 hPa Calm     83 % 0 mm
19:14 5.6 °C 3.1 °C 1020.2 hPa Calm     84 % 0 mm
19:19 5.5 °C 3.2 °C 1020.2 hPa SE 3.7 km/h 0.5 km/h 85 % 0 mm
19:24 5.4 °C 3.1 °C 1020.5 hPa SE 5.6 km/h 1.9 km/h 85 % 0 mm
19:29 5.2 °C 3.1 °C 1020.2 hPa Calm     86 % 0 mm
19:34 5.2 °C 3 °C 1020.5 hPa Calm     86 % 0 mm
19:39 5.1 °C 2.9 °C 1020.5 hPa Calm     86 % 0 mm
19:44 4.9 °C 2.8 °C 1020.5 hPa SE 3.2 km/h 1.8 km/h 86 % 0 mm
19:49 4.8 °C 2.8 °C 1020.2 hPa SSE 3.7 km/h 0.8 km/h 87 % 0 mm
19:54 4.7 °C 2.7 °C 1020.2 hPa SSE 1.9 km/h   87 % 0 mm
19:59 4.8 °C 2.9 °C 1020.2 hPa SE 5.6 km/h 2.6 km/h 88 % 0 mm
20:04 4.8 °C 3 °C 1020.5 hPa SE 3.7 km/h 1 km/h 88 % 0 mm
20:09 4.8 °C 3 °C 1020.5 hPa SSE 1.9 km/h 0.6 km/h 88 % 0 mm
20:14 4.9 °C 3.1 °C 1020.2 hPa SSE 3.7 km/h 2.3 km/h 88 % 0 mm
20:19 4.9 °C 3.1 °C 1020.2 hPa SSE 8 km/h 4.5 km/h 88 % 0 mm
20:24 5.1 °C 3.4 °C 1020.2 hPa SE 3.7 km/h 0.2 km/h 89 % 0 mm
20:29 5.3 °C 3.8 °C 1020.2 hPa SSE 3.7 km/h 1.4 km/h 90 % 0 mm
20:34 5.5 °C 4 °C 1020.2 hPa SE 3.7 km/h   90 % 0 mm
20:39 5.5 °C 3.8 °C 1020.2 hPa SSE 1.9 km/h 0.3 km/h 89 % 0 mm
20:44 5.5 °C 4 °C 1020.5 hPa SE 1.9 km/h 0.5 km/h 90 % 0 mm
20:49 5.5 °C 4 °C 1020.2 hPa SE 5.6 km/h 1.8 km/h 90 % 0 mm
20:54 5.6 °C 4.1 °C 1020.2 hPa SE 6.4 km/h 4.2 km/h 90 % 0 mm
20:59 5.7 °C 4.2 °C 1020.5 hPa SSE 5.6 km/h 2.7 km/h 90 % 0 mm
21:04 5.8 °C 4.3 °C 1020.5 hPa SE 6.4 km/h 4.8 km/h 90 % 0 mm
21:09 5.8 °C 4.3 °C 1020.5 hPa SSE 7.4 km/h 7.2 km/h 90 % 0 mm
21:14 5.7 °C 4.2 °C 1020.5 hPa SSE 7.4 km/h 4.2 km/h 90 % 0 mm
21:19 5.7 °C 4.3 °C 1020.5 hPa SSE 7.4 km/h 5.6 km/h 91 % 0 mm
21:24 5.6 °C 4.3 °C 1020.5 hPa SSE 8 km/h 7.2 km/h 91 % 0 mm
21:29 5.5 °C 4.2 °C 1020.5 hPa SE 9.3 km/h 7.7 km/h 91 % 0 mm
21:34 5.4 °C 4.1 °C 1020.5 hPa SSE 9.3 km/h 8.4 km/h 91 % 0 mm
21:39 5.4 °C 4.1 °C 1020.2 hPa SE 7.4 km/h 6.3 km/h 91 % 0 mm
21:44 5.3 °C 4 °C 1020.2 hPa SSE 7.4 km/h 6.9 km/h 91 % 0 mm
21:49 5.3 °C 3.9 °C 1020.2 hPa SE 9.3 km/h 6.9 km/h 91 % 0 mm
21:54 5.3 °C 4.1 °C 1020.2 hPa SE 9.3 km/h 7.7 km/h 92 % 0 mm
21:59 5.4 °C 4.2 °C 1020.2 hPa SE 9.3 km/h 7.6 km/h 92 % 0 mm
22:04 5.6 °C 4.3 °C 1020.2 hPa SE 9.3 km/h 8.4 km/h 92 % 0 mm
22:09 5.6 °C 4.3 °C 1019.9 hPa SE 9.3 km/h 5.3 km/h 92 % 0 mm
22:14 5.5 °C 4.3 °C 1020.2 hPa SE 9.7 km/h 8.9 km/h 92 % 0 mm
22:19 5.4 °C 4.2 °C 1020.2 hPa SE 9.7 km/h 8.4 km/h 92 % 0 mm
22:24 5.4 °C 4.4 °C 1019.9 hPa SE 9.3 km/h 6.4 km/h 93 % 0 mm
22:29 5.4 °C 4.4 °C 1020.2 hPa SE 6.4 km/h 3.4 km/h 93 % 0 mm
22:34 5.4 °C 4.4 °C 1020.5 hPa SE 8 km/h 5.1 km/h 93 % 0 mm
22:39 5.5 °C 4.4 °C 1020.2 hPa SE 8 km/h 5.3 km/h 93 % 0 mm
22:44 5.6 °C 4.5 °C 1020.2 hPa SE 7.4 km/h 6.8 km/h 93 % 0 mm
22:49 5.6 °C 4.5 °C 1020.2 hPa SE 9.3 km/h 6.9 km/h 93 % 0 mm
22:54 5.6 °C 4.5 °C 1020.2 hPa SE 7.4 km/h 6.6 km/h 93 % 0 mm
22:59 5.7 °C 4.8 °C 1020.2 hPa SE 9.3 km/h 6.8 km/h 94 % 0 mm
23:04 5.7 °C 4.6 °C 1019.9 hPa SE 8 km/h 4.3 km/h 93 % 0 mm
23:09 5.6 °C 4.6 °C 1019.9 hPa SE 8 km/h 6.8 km/h 93 % 0 mm
23:14 5.6 °C 4.6 °C 1019.9 hPa SE 6.4 km/h 5.6 km/h 93 % 0 mm
23:19 5.6 °C 4.7 °C 1019.9 hPa SE 6.4 km/h 6.6 km/h 94 % 0 mm
23:24 5.7 °C 4.8 °C 1019.9 hPa North 9.3 km/h 6.9 km/h 94 % 0 mm
23:29 5.7 °C 4.8 °C 1019.9 hPa SE 9.3 km/h 5.3 km/h 94 % 0 mm
23:34 5.7 °C 4.8 °C 1019.9 hPa SE 9.7 km/h 7.2 km/h 94 % 0 mm
23:39 5.7 °C 4.8 °C 1019.5 hPa SE 9.3 km/h 7.7 km/h 94 % 0 mm
23:44 5.8 °C 4.9 °C 1019.5 hPa SE 11.1 km/h 7.2 km/h 94 % 0 mm
23:49 5.8 °C 4.9 °C 1019.5 hPa SE 13 km/h 7.6 km/h 94 % 0 mm
23:54 6.1 °C 5.2 °C 1019.5 hPa SE 11.1 km/h 8.7 km/h 94 % 0 mm
23:59 6.2 °C 5.4 °C 1019.5 hPa ESE 13 km/h 9.3 km/h 95 % 0 mm
Ararat Weather
Compliments of Weather Underground - 2.25 mb
Click here to send mail.


ABOUT

Live weather data from Ararat, Victoria, Australia, 3377
Data uploaded from Cumulus every 5 minutes to Weather Underground.
This site then downloads the raw data for formatting and display.
Metric and imperial data can be displayed. Graphs and historical data available.
Includes Sun and Moon times and rain image live from BOM.

Check out Ararat Weather on Facebook, Twitter and Google +

Help support ongoing costs by checking out the ads





Follow @AraratWeather